ROA2078 SVMI-TJSJ
Flight info
| Callsign | ROA2078 |
|---|---|
| Flight time | N/A |
| Altitude | 37000 |
| Route | MIDUR DCT TOSOS DCT SILVA DCT ARMUR JOSHE3 |
| Aircraft | B738/M-SDE2E3FGHIRWXY/LB1 |
Departure
| Time | 2026-05-06 23:17 |
|---|---|
| Airport | Maiquetía Simón Bolívar International Airport (SVMI) |
Arrival
| Time | N/A |
|---|---|
| Airport | Luis Munoz Marin International Airport (TJSJ) |
| Time | Latitude | Longitude | Altitude | Speed | Heading |
|---|---|---|---|---|---|
| 2026-05-06 22:48 | 10.59826 | -67.00518 | 229 ft | 0 kts | 178° |
| 2026-05-06 23:03 | 10.59852 | -67.00519 | 229 ft | 4 kts | 178° |
| 2026-05-06 23:03 | 10.59880 | -67.00520 | 229 ft | 4 kts | 178° |
| 2026-05-06 23:03 | 10.59907 | -67.00521 | 229 ft | 4 kts | 178° |
| 2026-05-06 23:03 | 10.59934 | -67.00522 | 229 ft | 4 kts | 178° |
| 2026-05-06 23:04 | 10.59962 | -67.00523 | 229 ft | 4 kts | 179° |
| 2026-05-06 23:04 | 10.59985 | -67.00522 | 229 ft | 2 kts | 194° |
| 2026-05-06 23:04 | 10.59996 | -67.00517 | 228 ft | 2 kts | 246° |
| 2026-05-06 23:04 | 10.59999 | -67.00499 | 228 ft | 4 kts | 266° |
| 2026-05-06 23:05 | 10.59999 | -67.00474 | 228 ft | 4 kts | 269° |
| 2026-05-06 23:05 | 10.60000 | -67.00446 | 227 ft | 4 kts | 269° |
| 2026-05-06 23:05 | 10.60000 | -67.00418 | 227 ft | 4 kts | 269° |
| 2026-05-06 23:05 | 10.60001 | -67.00390 | 226 ft | 4 kts | 269° |
| 2026-05-06 23:06 | 10.60001 | -67.00375 | 226 ft | 0 kts | 269° |
| 2026-05-06 23:09 | 10.60001 | -67.00378 | 226 ft | 1 kts | 269° |
| 2026-05-06 23:09 | 10.60003 | -67.00395 | 226 ft | 3 kts | 282° |
| 2026-05-06 23:10 | 10.60022 | -67.00417 | 229 ft | 5 kts | 327° |
| 2026-05-06 23:10 | 10.60071 | -67.00427 | 228 ft | 9 kts | 354° |
| 2026-05-06 23:10 | 10.60110 | -67.00439 | 225 ft | 7 kts | 317° |
| 2026-05-06 23:10 | 10.60101 | -67.00486 | 226 ft | 8 kts | 250° |
| 2026-05-06 23:11 | 10.60079 | -67.00535 | 229 ft | 8 kts | 241° |
| 2026-05-06 23:11 | 10.60045 | -67.00581 | 231 ft | 9 kts | 225° |
| 2026-05-06 23:11 | 10.60004 | -67.00629 | 230 ft | 10 kts | 242° |
| 2026-05-06 23:11 | 10.59991 | -67.00699 | 231 ft | 11 kts | 267° |
| 2026-05-06 23:12 | 10.59988 | -67.00779 | 233 ft | 12 kts | 269° |
| 2026-05-06 23:12 | 10.59986 | -67.00867 | 234 ft | 13 kts | 268° |
| 2026-05-06 23:12 | 10.59982 | -67.00965 | 236 ft | 14 kts | 268° |
| 2026-05-06 23:12 | 10.59978 | -67.01069 | 238 ft | 15 kts | 267° |
| 2026-05-06 23:13 | 10.59974 | -67.01176 | 240 ft | 14 kts | 267° |
| 2026-05-06 23:13 | 10.60025 | -67.01241 | 241 ft | 12 kts | 342° |
| 2026-05-06 23:13 | 10.60110 | -67.01247 | 241 ft | 13 kts | 358° |
| 2026-05-06 23:13 | 10.60208 | -67.01250 | 238 ft | 15 kts | 358° |
| 2026-05-06 23:14 | 10.60275 | -67.01251 | 239 ft | 0 kts | 359° |
| 2026-05-06 23:15 | 10.60276 | -67.01251 | 239 ft | 2 kts | 359° |
| 2026-05-06 23:15 | 10.60312 | -67.01252 | 240 ft | 8 kts | 359° |
| 2026-05-06 23:15 | 10.60375 | -67.01226 | 241 ft | 13 kts | 57° |
| 2026-05-06 23:16 | 10.60382 | -67.01197 | 240 ft | 0 kts | 87° |
| 2026-05-06 23:16 | 10.60382 | -67.01193 | 240 ft | 7 kts | 87° |
| 2026-05-06 23:16 | 10.60391 | -67.00909 | 233 ft | 73 kts | 88° |
| 2026-05-06 23:16 | 10.60414 | -67.00205 | 225 ft | 126 kts | 88° |
| 2026-05-06 23:17 | 10.60437 | -66.99163 | 212 ft | 167 kts | 90° |
| 2026-05-06 23:17 | 10.60455 | -66.97959 | 670 ft | 168 kts | 91° |
| 2026-05-06 23:17 | 10.60564 | -66.96766 | 1282 ft | 170 kts | 81° |
| 2026-05-06 23:17 | 10.60799 | -66.95530 | 1678 ft | 185 kts | 80° |
| 2026-05-06 23:18 | 10.61063 | -66.94199 | 2090 ft | 200 kts | 80° |
| 2026-05-06 23:18 | 10.61336 | -66.92769 | 2601 ft | 215 kts | 77° |
| 2026-05-06 23:18 | 10.61975 | -66.91350 | 3192 ft | 231 kts | 50° |
| 2026-05-06 23:18 | 10.63341 | -66.90421 | 3802 ft | 248 kts | 19° |
| 2026-05-06 23:19 | 10.65113 | -66.90176 | 4389 ft | 266 kts | 4° |
| 2026-05-06 23:19 | 10.67002 | -66.90138 | 5105 ft | 275 kts | 3° |
| 2026-05-06 23:19 | 10.68944 | -66.90107 | 5902 ft | 281 kts | 3° |
| 2026-05-06 23:19 | 10.70921 | -66.90059 | 6685 ft | 287 kts | 4° |
| 2026-05-06 23:20 | 10.72903 | -66.90003 | 7462 ft | 292 kts | 4° |
| 2026-05-06 23:20 | 10.74956 | -66.89939 | 8253 ft | 296 kts | 4° |
| 2026-05-06 23:20 | 10.77032 | -66.89873 | 9040 ft | 300 kts | 4° |
| 2026-05-06 23:20 | 10.79132 | -66.89802 | 9802 ft | 304 kts | 4° |
| 2026-05-06 23:21 | 10.81277 | -66.89725 | 10409 ft | 315 kts | 5° |
| 2026-05-06 23:21 | 10.83503 | -66.89640 | 10820 ft | 329 kts | 5° |
| 2026-05-06 23:21 | 10.85759 | -66.89645 | 11921 ft | 320 kts | 0° |
| 2026-05-06 23:21 | 10.87974 | -66.89746 | 12885 ft | 317 kts | 0° |
| 2026-05-06 23:22 | 10.90170 | -66.89854 | 13704 ft | 317 kts | 360° |
| 2026-05-06 23:22 | 10.92384 | -66.89960 | 14505 ft | 319 kts | 360° |
| 2026-05-06 23:22 | 10.94606 | -66.90063 | 15301 ft | 320 kts | 360° |
| 2026-05-06 23:22 | 10.96841 | -66.90162 | 16101 ft | 322 kts | 359° |
| 2026-05-06 23:23 | 10.99092 | -66.90258 | 16859 ft | 324 kts | 359° |
| 2026-05-06 23:23 | 11.01357 | -66.90357 | 17640 ft | 326 kts | 359° |
| 2026-05-06 23:23 | 11.03604 | -66.90454 | 18397 ft | 328 kts | 359° |
| 2026-05-06 23:23 | 11.05908 | -66.90553 | 19121 ft | 331 kts | 359° |
| 2026-05-06 23:24 | 11.08233 | -66.90654 | 19797 ft | 336 kts | 358° |
| 2026-05-06 23:24 | 11.10582 | -66.90756 | 20476 ft | 339 kts | 358° |
| 2026-05-06 23:24 | 11.12957 | -66.90858 | 21116 ft | 344 kts | 358° |
| 2026-05-06 23:24 | 11.15345 | -66.90962 | 21738 ft | 348 kts | 358° |
| 2026-05-06 23:25 | 11.17790 | -66.91067 | 22347 ft | 352 kts | 358° |
| 2026-05-06 23:25 | 11.20261 | -66.91174 | 22933 ft | 357 kts | 358° |
| 2026-05-06 23:25 | 11.22732 | -66.91281 | 23498 ft | 361 kts | 357° |
| 2026-05-06 23:25 | 11.25259 | -66.91391 | 24055 ft | 366 kts | 357° |
| 2026-05-06 23:26 | 11.27812 | -66.91501 | 24606 ft | 369 kts | 357° |
| 2026-05-06 23:26 | 11.30428 | -66.91615 | 24916 ft | 379 kts | 357° |
| 2026-05-06 23:26 | 11.33045 | -66.91728 | 24934 ft | 378 kts | 357° |
| 2026-05-06 23:26 | 11.35674 | -66.91842 | 24942 ft | 376 kts | 357° |
| 2026-05-06 23:27 | 11.38268 | -66.91954 | 24948 ft | 374 kts | 357° |
| 2026-05-06 23:27 | 11.40888 | -66.92068 | 24950 ft | 373 kts | 357° |
| 2026-05-06 23:27 | 11.43441 | -66.92172 | 24951 ft | 372 kts | 359° |
| 2026-05-06 23:27 | 11.46035 | -66.92049 | 24955 ft | 372 kts | 4° |
| 2026-05-06 23:28 | 11.48622 | -66.91830 | 24954 ft | 372 kts | 4° |
| 2026-05-06 23:28 | 11.51209 | -66.91605 | 24954 ft | 372 kts | 4° |
| 2026-05-06 23:28 | 11.53788 | -66.91383 | 24952 ft | 372 kts | 4° |
| 2026-05-06 23:28 | 11.56260 | -66.91173 | 24953 ft | 372 kts | 4° |
| 2026-05-06 23:29 | 11.58953 | -66.90950 | 24954 ft | 372 kts | 4° |
| 2026-05-06 23:29 | 11.61504 | -66.90741 | 24952 ft | 372 kts | 4° |
| 2026-05-06 23:29 | 11.64091 | -66.90528 | 24952 ft | 372 kts | 4° |
| 2026-05-06 23:29 | 11.66678 | -66.90315 | 24951 ft | 372 kts | 4° |
| 2026-05-06 23:30 | 11.69265 | -66.90103 | 24952 ft | 372 kts | 4° |
| 2026-05-06 23:30 | 11.71824 | -66.89892 | 24954 ft | 372 kts | 4° |
| 2026-05-06 23:30 | 11.74411 | -66.89679 | 24954 ft | 372 kts | 4° |
| 2026-05-06 23:30 | 11.76999 | -66.89466 | 24953 ft | 372 kts | 4° |
| 2026-05-06 23:31 | 11.79582 | -66.89254 | 24952 ft | 372 kts | 4° |
| 2026-05-06 23:31 | 11.82165 | -66.89041 | 24953 ft | 372 kts | 4° |
| 2026-05-06 23:31 | 11.84711 | -66.88831 | 24953 ft | 372 kts | 4° |
| 2026-05-06 23:31 | 11.87293 | -66.88619 | 24953 ft | 372 kts | 4° |
| 2026-05-06 23:32 | 11.89888 | -66.88405 | 24952 ft | 372 kts | 4° |
| 2026-05-06 23:32 | 11.92472 | -66.88192 | 24953 ft | 372 kts | 4° |
| 2026-05-06 23:32 | 11.95053 | -66.87979 | 24953 ft | 372 kts | 4° |
| 2026-05-06 23:32 | 11.97602 | -66.87769 | 24953 ft | 372 kts | 4° |
| 2026-05-06 23:33 | 12.00189 | -66.87556 | 24953 ft | 372 kts | 4° |
| 2026-05-06 23:33 | 12.02771 | -66.87343 | 24954 ft | 371 kts | 4° |
| 2026-05-06 23:33 | 12.05356 | -66.87129 | 24954 ft | 371 kts | 4° |
| 2026-05-06 23:33 | 12.07897 | -66.86920 | 24952 ft | 371 kts | 4° |
| 2026-05-06 23:34 | 12.10477 | -66.86707 | 24953 ft | 370 kts | 4° |
| 2026-05-06 23:34 | 12.13057 | -66.86494 | 24952 ft | 370 kts | 4° |
| 2026-05-06 23:34 | 12.15602 | -66.86284 | 24952 ft | 370 kts | 4° |
| 2026-05-06 23:34 | 12.18180 | -66.86071 | 24952 ft | 370 kts | 4° |
| 2026-05-06 23:35 | 12.20760 | -66.85858 | 24953 ft | 370 kts | 4° |
| 2026-05-06 23:35 | 12.23297 | -66.85649 | 24955 ft | 370 kts | 4° |
| 2026-05-06 23:35 | 12.25871 | -66.85436 | 24958 ft | 370 kts | 4° |
| 2026-05-06 23:35 | 12.28444 | -66.85223 | 24956 ft | 370 kts | 4° |
| 2026-05-06 23:36 | 12.31012 | -66.85011 | 24954 ft | 370 kts | 4° |
| 2026-05-06 23:36 | 12.33581 | -66.84799 | 24955 ft | 370 kts | 4° |
| 2026-05-06 23:36 | 12.36154 | -66.84586 | 24959 ft | 370 kts | 4° |
| 2026-05-06 23:36 | 12.38713 | -66.84375 | 24960 ft | 370 kts | 4° |
| 2026-05-06 23:37 | 12.41246 | -66.84165 | 24962 ft | 370 kts | 4° |
| 2026-05-06 23:37 | 12.43815 | -66.83953 | 24962 ft | 370 kts | 4° |
| 2026-05-06 23:37 | 12.46384 | -66.83741 | 24961 ft | 370 kts | 4° |
| 2026-05-06 23:37 | 12.48948 | -66.83529 | 24960 ft | 370 kts | 4° |
| 2026-05-06 23:38 | 12.51518 | -66.83316 | 24962 ft | 370 kts | 4° |
| 2026-05-06 23:38 | 12.54092 | -66.83103 | 24963 ft | 370 kts | 4° |
| 2026-05-06 23:38 | 12.56657 | -66.82891 | 24962 ft | 369 kts | 4° |
| 2026-05-06 23:38 | 12.59216 | -66.82679 | 24964 ft | 369 kts | 4° |
| 2026-05-06 23:39 | 12.61744 | -66.82470 | 24968 ft | 368 kts | 4° |
| 2026-05-06 23:39 | 12.64305 | -66.82258 | 24969 ft | 369 kts | 4° |
| 2026-05-06 23:39 | 12.66863 | -66.82046 | 24970 ft | 369 kts | 4° |
| 2026-05-06 23:39 | 12.69421 | -66.81834 | 24970 ft | 369 kts | 4° |
| 2026-05-06 23:40 | 12.71984 | -66.81622 | 24971 ft | 369 kts | 4° |
| 2026-05-06 23:40 | 12.74543 | -66.81410 | 24970 ft | 369 kts | 4° |
| 2026-05-06 23:40 | 12.77100 | -66.81198 | 24968 ft | 369 kts | 4° |
| 2026-05-06 23:40 | 12.79657 | -66.80986 | 24971 ft | 368 kts | 4° |
| 2026-05-06 23:41 | 12.82216 | -66.80774 | 24971 ft | 368 kts | 4° |
| 2026-05-06 23:41 | 12.84739 | -66.80565 | 24971 ft | 368 kts | 4° |
| 2026-05-06 23:41 | 12.87303 | -66.80352 | 24970 ft | 367 kts | 4° |
| 2026-05-06 23:41 | 12.89856 | -66.80140 | 24971 ft | 367 kts | 4° |
| 2026-05-06 23:42 | 12.92406 | -66.79929 | 24971 ft | 367 kts | 4° |
| 2026-05-06 23:42 | 12.94955 | -66.79717 | 24971 ft | 367 kts | 4° |
| 2026-05-06 23:42 | 12.97473 | -66.79508 | 24970 ft | 367 kts | 4° |
| 2026-05-06 23:42 | 13.00030 | -66.79296 | 24971 ft | 367 kts | 4° |
| 2026-05-06 23:43 | 13.02585 | -66.79084 | 24971 ft | 367 kts | 4° |
| 2026-05-06 23:43 | 13.05134 | -66.78872 | 24970 ft | 366 kts | 4° |
| 2026-05-06 23:43 | 13.07675 | -66.78661 | 24971 ft | 366 kts | 4° |
| 2026-05-06 23:43 | 13.10186 | -66.78452 | 24971 ft | 366 kts | 4° |
| 2026-05-06 23:44 | 13.12733 | -66.78241 | 24970 ft | 366 kts | 4° |
| 2026-05-06 23:44 | 13.15281 | -66.78029 | 24975 ft | 366 kts | 4° |
| 2026-05-06 23:44 | 13.17830 | -66.77817 | 24978 ft | 366 kts | 4° |
| 2026-05-06 23:44 | 13.20372 | -66.77606 | 24979 ft | 366 kts | 4° |
| 2026-05-06 23:45 | 13.22996 | -66.77387 | 24978 ft | 367 kts | 4° |
| 2026-05-06 23:45 | 13.25539 | -66.77176 | 24980 ft | 367 kts | 4° |
| 2026-05-06 23:45 | 13.28051 | -66.76967 | 24980 ft | 366 kts | 4° |
| 2026-05-06 23:45 | 13.30591 | -66.76755 | 24979 ft | 366 kts | 4° |
| 2026-05-06 23:46 | 13.33145 | -66.76543 | 24979 ft | 366 kts | 4° |
| 2026-05-06 23:46 | 13.35684 | -66.76332 | 24980 ft | 366 kts | 4° |
| 2026-05-06 23:46 | 13.38231 | -66.76119 | 24979 ft | 366 kts | 4° |
| 2026-05-06 23:46 | 13.40774 | -66.75908 | 24980 ft | 366 kts | 4° |
| 2026-05-06 23:47 | 13.43285 | -66.75698 | 24978 ft | 366 kts | 4° |
| 2026-05-06 23:47 | 13.45830 | -66.75486 | 24980 ft | 366 kts | 4° |
| 2026-05-06 23:47 | 13.48373 | -66.75274 | 24974 ft | 365 kts | 4° |
| 2026-05-06 23:47 | 13.50905 | -66.75063 | 24978 ft | 365 kts | 4° |
| 2026-05-06 23:48 | 13.53444 | -66.74851 | 24981 ft | 365 kts | 4° |
| 2026-05-06 23:48 | 13.55978 | -66.74640 | 24982 ft | 365 kts | 4° |
| 2026-05-06 23:48 | 13.58481 | -66.74431 | 24987 ft | 365 kts | 4° |
| 2026-05-06 23:48 | 13.61022 | -66.74219 | 24986 ft | 365 kts | 4° |
| 2026-05-06 23:49 | 13.63560 | -66.74007 | 24984 ft | 365 kts | 4° |
| 2026-05-06 23:49 | 13.66092 | -66.73796 | 24980 ft | 365 kts | 4° |
| 2026-05-06 23:49 | 13.68626 | -66.73584 | 24984 ft | 365 kts | 4° |
| 2026-05-06 23:49 | 13.71157 | -66.73373 | 24987 ft | 365 kts | 4° |
| 2026-05-06 23:50 | 13.72835 | -66.73233 | 24986 ft | 365 kts | 4° |
| 2026-05-06 23:50 | 13.78783 | -66.72736 | 25979 ft | 372 kts | 4° |
| 2026-05-06 23:50 | 13.80537 | -66.72589 | 26310 ft | 375 kts | 4° |
| 2026-05-06 23:51 | 13.83127 | -66.72373 | 26807 ft | 379 kts | 3° |
| 2026-05-06 23:51 | 13.86642 | -66.72079 | 27438 ft | 384 kts | 3° |
| 2026-05-06 23:51 | 13.88453 | -66.71927 | 27746 ft | 387 kts | 3° |
| 2026-05-06 23:51 | 13.91151 | -66.71702 | 28205 ft | 391 kts | 2° |
| 2026-05-06 23:52 | 13.93849 | -66.71476 | 28644 ft | 394 kts | 2° |
| 2026-05-06 23:52 | 13.96603 | -66.71246 | 29066 ft | 398 kts | 2° |
| 2026-05-06 23:52 | 13.99384 | -66.71013 | 29474 ft | 402 kts | 2° |
| 2026-05-06 23:52 | 14.02189 | -66.70778 | 29891 ft | 405 kts | 2° |